createdAt,value
2022-07-29T00:01:33.224Z,100135.59
2022-07-29T00:04:01.611Z,100141.81
2022-07-29T00:06:30.202Z,100145.38
2022-07-29T00:08:58.529Z,100135.66
2022-07-29T00:11:28.217Z,100133.03
2022-07-29T00:13:56.599Z,100133.94
2022-07-29T00:16:25.039Z,100129.50
2022-07-29T00:18:53.421Z,100133.94
2022-07-29T00:21:21.826Z,100118.91
2022-07-29T00:23:50.136Z,100120.66
2022-07-29T00:26:18.605Z,100118.91
2022-07-29T00:28:48.330Z,100110.09
2022-07-29T00:31:16.690Z,100110.97
2022-07-29T00:33:45.069Z,100101.22
2022-07-29T00:36:12.420Z,100104.78
2022-07-29T00:38:42.509Z,100097.72
2022-07-29T00:41:10.860Z,100095.94
2022-07-29T00:43:39.313Z,100084.44
2022-07-29T00:46:09.056Z,100087.09
2022-07-29T00:48:37.609Z,100084.50
2022-07-29T00:51:08.483Z,100076.53
2022-07-29T00:53:38.263Z,100069.47
2022-07-29T00:56:06.847Z,100066.81
2022-07-29T00:58:35.212Z,100059.75
2022-07-29T01:01:03.792Z,100062.41
2022-07-29T01:03:33.542Z,100050.91
2022-07-29T01:06:02.460Z,100056.28
2022-07-29T01:08:30.850Z,100053.63
2022-07-29T01:10:59.596Z,100054.53
2022-07-29T01:13:28.492Z,100052.75
2022-07-29T01:16:01.115Z,100047.47
2022-07-29T01:18:36.990Z,100051.88
2022-07-29T01:21:26.665Z,100049.28
2022-07-29T01:24:12.779Z,100051.94
2022-07-29T01:26:47.586Z,100050.19
2022-07-29T01:29:35.828Z,100052.84
2022-07-29T01:32:22.473Z,100038.69
2022-07-29T01:35:03.498Z,100042.28
2022-07-29T01:37:34.164Z,100037.88
2022-07-29T01:40:05.463Z,100042.31
2022-07-29T01:42:38.190Z,100038.78
2022-07-29T01:45:16.351Z,100040.59
2022-07-29T01:47:49.076Z,100042.38
2022-07-29T01:50:22.263Z,100046.81
2022-07-29T01:52:56.310Z,100038.84
2022-07-29T01:55:28.994Z,100032.66
2022-07-29T01:57:59.828Z,100030.94
2022-07-29T02:00:32.308Z,100025.63
2022-07-29T02:03:04.705Z,100037.16
2022-07-29T02:05:36.327Z,100025.66
2022-07-29T02:08:06.333Z,100026.53
2022-07-29T02:10:36.420Z,100023.91
2022-07-29T02:13:06.539Z,100031.03
2022-07-29T02:15:37.472Z,100030.16
2022-07-29T02:18:09.394Z,100029.25
2022-07-29T02:20:39.925Z,100023.06
2022-07-29T02:23:12.259Z,100023.97
2022-07-29T02:25:43.294Z,100028.41
2022-07-29T02:28:12.286Z,100025.75
2022-07-29T02:30:45.151Z,100024.88
2022-07-29T02:33:16.437Z,100025.81
2022-07-29T02:35:47.211Z,100031.13
2022-07-29T02:38:35.607Z,100030.25
2022-07-29T02:41:09.828Z,100034.69
2022-07-29T02:43:38.872Z,100039.09
2022-07-29T02:46:28.523Z,100058.56
2022-07-29T02:49:04.032Z,100070.97
2022-07-29T02:51:44.584Z,100064.81
2022-07-29T02:54:21.326Z,100064.84
2022-07-29T02:56:53.555Z,100063.09
2022-07-29T02:59:26.918Z,100063.09
2022-07-29T03:01:59.603Z,100057.81
2022-07-29T03:04:30.244Z,100064.91
2022-07-29T03:07:01.513Z,100064.91
2022-07-29T03:09:31.656Z,100068.50
2022-07-29T03:12:00.437Z,100065.00
2022-07-29T03:14:29.203Z,100073.00
2022-07-29T03:17:00.327Z,100072.13
2022-07-29T03:19:29.088Z,100076.59
2022-07-29T03:21:59.042Z,100078.38
2022-07-29T03:24:32.382Z,100093.41
2022-07-29T03:27:01.316Z,100097.84
2022-07-29T03:29:33.690Z,100102.31
2022-07-29T03:32:08.371Z,100095.28
2022-07-29T03:34:38.866Z,100098.81
2022-07-29T03:37:08.094Z,100111.19
2022-07-29T03:39:43.387Z,100122.72
2022-07-29T03:42:14.993Z,100128.91
2022-07-29T03:44:45.408Z,100123.63
2022-07-29T03:47:16.444Z,100114.81
2022-07-29T03:49:49.159Z,100131.63
2022-07-29T03:52:17.658Z,100133.41
2022-07-29T03:54:46.619Z,100132.56
2022-07-29T03:57:17.352Z,100125.50
2022-07-29T03:59:46.744Z,100129.94
2022-07-29T04:02:21.887Z,100134.34
2022-07-29T04:04:51.414Z,100126.41
2022-07-29T04:07:19.846Z,100132.59
2022-07-29T04:09:48.176Z,100130.84
2022-07-29T04:12:16.530Z,100135.25
2022-07-29T04:14:44.915Z,100124.69
2022-07-29T04:17:13.272Z,100125.59
2022-07-29T04:19:43.007Z,100112.34
2022-07-29T04:22:11.363Z,100115.03
2022-07-29T04:24:43.989Z,100111.50
2022-07-29T04:27:12.635Z,100108.84
2022-07-29T04:29:56.633Z,100100.03
2022-07-29T04:32:25.802Z,100102.69
2022-07-29T04:34:55.450Z,100106.25
2022-07-29T04:37:23.819Z,100093.00
2022-07-29T04:39:52.186Z,100089.47
2022-07-29T04:42:26.680Z,100091.28
2022-07-29T04:44:56.325Z,100092.16
2022-07-29T04:47:24.834Z,100095.69
2022-07-29T04:49:53.176Z,100108.06
2022-07-29T04:52:23.175Z,100116.91
2022-07-29T04:54:51.553Z,100125.72
2022-07-29T04:57:19.935Z,100130.19
2022-07-29T04:59:48.321Z,100127.53
2022-07-29T05:02:16.758Z,100120.47
2022-07-29T05:04:45.218Z,100120.47
2022-07-29T05:07:13.575Z,100124.00
2022-07-29T05:09:43.310Z,100118.72
2022-07-29T05:12:11.819Z,100120.47
2022-07-29T05:14:40.202Z,100111.66
2022-07-29T05:17:08.584Z,100104.59
2022-07-29T05:19:39.543Z,100101.06
2022-07-29T05:22:08.494Z,100101.97
2022-07-29T05:24:36.875Z,100098.44
2022-07-29T05:27:06.766Z,100103.72
2022-07-29T05:29:43.754Z,100100.19
2022-07-29T05:32:14.357Z,100102.88
2022-07-29T05:34:50.236Z,100102.88
2022-07-29T05:37:20.674Z,100105.53
2022-07-29T05:39:56.140Z,100105.50
2022-07-29T05:42:27.758Z,100101.97
2022-07-29T05:44:56.141Z,100106.38
2022-07-29T05:47:25.118Z,100102.84
2022-07-29T05:49:53.495Z,100109.03
2022-07-29T05:52:22.035Z,100113.47
2022-07-29T05:54:50.871Z,100109.91
2022-07-29T05:57:20.241Z,100109.03
2022-07-29T05:59:51.287Z,100106.38
2022-07-29T06:02:19.800Z,100111.66
2022-07-29T06:04:48.350Z,100111.66
2022-07-29T06:07:17.160Z,100120.50
2022-07-29T06:09:45.852Z,100116.94
2022-07-29T06:12:14.269Z,100118.72
2022-07-29T06:14:42.599Z,100123.97
2022-07-29T06:17:12.605Z,100118.66
2022-07-29T06:19:41.167Z,100116.00
2022-07-29T06:22:09.586Z,100117.75
2022-07-29T06:24:42.367Z,100119.50
2022-07-29T06:27:10.697Z,100119.47
2022-07-29T06:29:39.316Z,100134.47
2022-07-29T06:32:10.001Z,100123.84
2022-07-29T06:34:39.926Z,100137.03
2022-07-29T06:37:15.500Z,100146.75
2022-07-29T06:39:44.027Z,100146.78
2022-07-29T06:42:12.421Z,100152.00
2022-07-29T06:44:40.803Z,100148.47
2022-07-29T06:47:09.191Z,100150.22
2022-07-29T06:49:38.912Z,100139.59
2022-07-29T06:52:07.296Z,100149.28
2022-07-29T06:54:35.651Z,100154.56
2022-07-29T06:57:04.031Z,100150.13
2022-07-29T06:59:35.834Z,100155.38
2022-07-29T07:02:04.540Z,100162.44
2022-07-29T07:04:33.151Z,100170.38
2022-07-29T07:07:02.900Z,100172.13
2022-07-29T07:09:40.336Z,100164.19
2022-07-29T07:12:09.911Z,100167.66
2022-07-29T07:14:38.289Z,100164.13
2022-07-29T07:17:08.071Z,100159.72
2022-07-29T07:19:36.546Z,100168.50
2022-07-29T07:22:06.318Z,100165.88
2022-07-29T07:24:34.712Z,100167.59
2022-07-29T07:27:03.086Z,100172.00
2022-07-29T07:29:31.485Z,100177.28
2022-07-29T07:32:01.114Z,100179.91
2022-07-29T07:34:30.992Z,100176.34
2022-07-29T07:36:59.366Z,100178.97
2022-07-29T07:39:29.133Z,100177.16
2022-07-29T07:41:57.538Z,100174.50
2022-07-29T07:44:25.915Z,100173.59
2022-07-29T07:46:54.802Z,100174.47
2022-07-29T07:49:23.335Z,100172.69
2022-07-29T07:51:51.896Z,100178.00
2022-07-29T07:54:20.467Z,100173.59
2022-07-29T07:56:53.303Z,100170.94
2022-07-29T07:59:22.012Z,100171.81
2022-07-29T08:01:56.328Z,100176.22
2022-07-29T08:04:28.490Z,100175.34
2022-07-29T08:06:58.355Z,100170.03
2022-07-29T08:09:30.120Z,100167.38
2022-07-29T08:12:00.540Z,100174.44
2022-07-29T08:14:28.924Z,100185.09
2022-07-29T08:16:57.353Z,100184.19
2022-07-29T08:19:25.830Z,100185.97
2022-07-29T08:21:54.801Z,100181.56
2022-07-29T08:24:40.980Z,100193.06
2022-07-29T08:27:33.352Z,100188.66
2022-07-29T08:29:59.437Z,100181.63
2022-07-29T08:32:52.112Z,100184.28
2022-07-29T08:35:17.798Z,100196.69
2022-07-29T08:37:46.203Z,100201.13
2022-07-29T08:40:16.148Z,100201.13
2022-07-29T08:42:45.950Z,100189.66
2022-07-29T08:45:14.770Z,100174.63
2022-07-29T08:47:46.394Z,100179.97
2022-07-29T08:50:15.537Z,100179.13
2022-07-29T08:52:44.180Z,100180.91
2022-07-29T08:55:12.731Z,100178.28
2022-07-29T08:57:50.926Z,100176.56
2022-07-29T09:00:25.576Z,100163.34
2022-07-29T09:02:59.675Z,100160.75
2022-07-29T09:05:28.659Z,100156.38
2022-07-29T09:07:57.470Z,100157.34
2022-07-29T09:10:26.073Z,100152.91
2022-07-29T09:12:56.205Z,100148.50
2022-07-29T09:15:26.135Z,100152.97
2022-07-29T09:17:56.305Z,100138.84
2022-07-29T09:20:25.035Z,100144.16
2022-07-29T09:22:54.721Z,100143.28
2022-07-29T09:25:36.411Z,100148.63
2022-07-29T09:28:08.893Z,100155.66
2022-07-29T09:30:52.029Z,100145.06
2022-07-29T09:33:20.937Z,100152.13
2022-07-29T09:36:01.266Z,100155.66
2022-07-29T09:38:30.773Z,100163.59
2022-07-29T09:41:05.467Z,100154.75
2022-07-29T09:43:35.371Z,100157.38
2022-07-29T09:46:13.908Z,100158.22
2022-07-29T09:48:42.455Z,100159.13
2022-07-29T09:51:21.298Z,100153.81
2022-07-29T09:53:51.335Z,100155.53
2022-07-29T09:56:22.059Z,100157.28
2022-07-29T09:59:07.571Z,100147.50
2022-07-29T10:01:37.528Z,100151.91
2022-07-29T10:04:06.392Z,100151.91
2022-07-29T10:06:34.794Z,100162.50
2022-07-29T10:09:10.350Z,100168.69
2022-07-29T10:11:49.459Z,100175.78
2022-07-29T10:14:18.446Z,100163.38
2022-07-29T10:16:48.622Z,100157.16
2022-07-29T10:19:17.262Z,100158.94
2022-07-29T10:21:46.236Z,100159.81
2022-07-29T10:24:15.298Z,100163.34
2022-07-29T10:26:44.065Z,100165.97
2022-07-29T10:29:12.490Z,100169.50
2022-07-29T10:31:51.391Z,100174.78
2022-07-29T10:34:33.145Z,100163.28
2022-07-29T10:37:12.094Z,100178.28
2022-07-29T10:39:53.916Z,100174.72
2022-07-29T10:42:29.742Z,100179.13
2022-07-29T10:45:05.606Z,100183.53
2022-07-29T10:47:35.184Z,100186.16
2022-07-29T10:50:11.706Z,100187.00
2022-07-29T10:52:57.178Z,100186.09
2022-07-29T10:55:37.575Z,100179.88
2022-07-29T10:58:17.982Z,100174.53
2022-07-29T11:00:49.348Z,100179.81
2022-07-29T11:03:49.476Z,100180.66
2022-07-29T11:06:26.376Z,100179.75
2022-07-29T11:09:25.676Z,100185.03
2022-07-29T11:12:04.318Z,100181.41
2022-07-29T11:15:00.057Z,100190.19
2022-07-29T11:17:47.189Z,100186.56
2022-07-29T11:20:33.242Z,100178.53
2022-07-29T11:23:04.120Z,100186.41
2022-07-29T11:25:42.959Z,100179.19
2022-07-29T11:28:25.286Z,100179.94
2022-07-29T11:30:56.044Z,100179.78
2022-07-29T11:33:54.405Z,100174.31
2022-07-29T11:39:36.318Z,100194.28
2022-07-29T11:42:42.014Z,100180.72
2022-07-29T11:45:41.640Z,100175.16
2022-07-29T11:48:29.366Z,100176.78
2022-07-29T11:50:54.471Z,100178.44
2022-07-29T11:53:23.142Z,100184.47
2022-07-29T11:58:47.061Z,100182.31
2022-07-29T12:01:16.131Z,100180.38
2022-07-29T12:06:17.414Z,100181.88
2022-07-29T12:08:47.571Z,100181.72
2022-07-29T12:11:23.555Z,100180.72
2022-07-29T12:13:53.249Z,100183.25
2022-07-29T12:16:25.867Z,100174.06
2022-07-29T12:19:03.675Z,100186.19
2022-07-29T12:21:59.384Z,100174.25
2022-07-29T12:24:28.232Z,100166.00
2022-07-29T12:26:59.479Z,100174.59
2022-07-29T12:29:33.927Z,100185.91
2022-07-29T12:32:06.991Z,100173.22
2022-07-29T12:34:44.327Z,100181.00
2022-07-29T12:37:13.223Z,100175.41
2022-07-29T12:39:41.995Z,100181.47
2022-07-29T12:42:18.364Z,100175.00
2022-07-29T12:44:49.075Z,100178.41
2022-07-29T12:47:19.012Z,100178.22
2022-07-29T12:49:47.673Z,100169.22
2022-07-29T12:52:26.138Z,100167.25
2022-07-29T12:54:54.519Z,100172.34
2022-07-29T12:57:24.952Z,100176.41
2022-07-29T13:00:06.255Z,100167.13
2022-07-29T13:02:34.707Z,100166.00
2022-07-29T13:05:07.572Z,100166.69
2022-07-29T13:07:54.675Z,100171.81
2022-07-29T13:10:25.789Z,100169.06
2022-07-29T13:13:06.774Z,100181.47
2022-07-29T13:15:35.855Z,100178.84
2022-07-29T13:18:04.804Z,100176.09
2022-07-29T13:20:33.897Z,100169.66
2022-07-29T13:23:02.812Z,100172.16
2022-07-29T13:25:33.923Z,100174.50
2022-07-29T13:28:02.286Z,100178.69
2022-07-29T13:30:32.095Z,100176.69
2022-07-29T13:33:00.509Z,100174.50
2022-07-29T13:35:30.612Z,100170.63
2022-07-29T13:37:59.046Z,100163.25
2022-07-29T13:40:27.575Z,100161.31
2022-07-29T13:42:56.022Z,100165.59
2022-07-29T13:45:24.640Z,100159.84
2022-07-29T13:47:58.825Z,100164.69
2022-07-29T13:50:27.384Z,100166.88
2022-07-29T13:52:55.759Z,100162.03
2022-07-29T13:55:24.171Z,100165.22
2022-07-29T13:57:52.879Z,100167.47
2022-07-29T14:00:21.649Z,100164.41
2022-07-29T14:02:53.119Z,100168.41
2022-07-29T14:05:22.958Z,100163.44
2022-07-29T14:07:51.317Z,100155.59
2022-07-29T14:10:20.313Z,100165.63
2022-07-29T14:12:48.731Z,100163.28
2022-07-29T14:15:17.091Z,100154.63
2022-07-29T14:17:45.523Z,100155.81
2022-07-29T14:20:13.939Z,100155.03
2022-07-29T14:22:44.897Z,100155.53
2022-07-29T14:25:15.171Z,100147.31
2022-07-29T14:27:44.726Z,100145.31
2022-07-29T14:30:14.095Z,100144.91
2022-07-29T14:32:42.785Z,100152.66
2022-07-29T14:35:18.395Z,100140.47
2022-07-29T14:37:48.750Z,100149.78
2022-07-29T14:40:17.141Z,100155.59
2022-07-29T14:42:45.521Z,100150.88
2022-07-29T14:45:13.905Z,100155.09
2022-07-29T14:47:42.494Z,100155.25
2022-07-29T14:50:11.732Z,100155.09
2022-07-29T14:52:40.149Z,100159.25
2022-07-29T14:55:16.374Z,100156.28
2022-07-29T14:57:48.627Z,100168.66
2022-07-29T15:00:17.802Z,100170.31
2022-07-29T15:03:01.560Z,100164.47
2022-07-29T15:05:30.943Z,100164.06
2022-07-29T15:07:59.772Z,100162.75
2022-07-29T15:10:29.864Z,100169.09
2022-07-29T15:12:58.934Z,100160.44
2022-07-29T15:15:27.348Z,100159.97
2022-07-29T15:17:56.062Z,100166.69
2022-07-29T15:20:26.199Z,100164.78
2022-07-29T15:22:56.328Z,100162.75
2022-07-29T15:25:25.063Z,100170.97
2022-07-29T15:28:00.550Z,100166.25
2022-07-29T15:30:33.343Z,100170.41
2022-07-29T15:33:03.862Z,100163.94
2022-07-29T15:35:32.328Z,100163.03
2022-07-29T15:38:00.721Z,100165.69
2022-07-29T15:40:29.224Z,100169.44
2022-07-29T15:43:01.655Z,100163.50
2022-07-29T15:45:32.546Z,100166.25
2022-07-29T15:48:02.020Z,100160.84
2022-07-29T15:50:30.455Z,100159.91
2022-07-29T15:52:58.794Z,100164.34
2022-07-29T15:55:27.226Z,100171.16
2022-07-29T15:58:00.234Z,100163.47
2022-07-29T16:00:30.477Z,100169.19
2022-07-29T16:02:58.857Z,100164.22
2022-07-29T16:05:29.537Z,100166.66
2022-07-29T16:08:00.607Z,100172.56
2022-07-29T16:10:29.036Z,100178.66
2022-07-29T16:12:57.326Z,100164.53
2022-07-29T16:15:25.777Z,100165.19
2022-07-29T16:17:55.461Z,100159.47
2022-07-29T16:20:23.924Z,100158.25
2022-07-29T16:22:52.326Z,100156.16
2022-07-29T16:25:20.901Z,100152.66
2022-07-29T16:27:49.343Z,100148.88
2022-07-29T16:30:17.952Z,100146.88
2022-07-29T16:32:46.504Z,100148.97
2022-07-29T16:35:16.391Z,100149.50
2022-07-29T16:37:44.760Z,100160.72
2022-07-29T16:40:13.386Z,100157.66
2022-07-29T16:42:47.053Z,100155.63
2022-07-29T16:45:15.694Z,100158.88
2022-07-29T16:47:44.298Z,100151.81
2022-07-29T16:50:12.751Z,100152.72
2022-07-29T16:52:42.538Z,100151.53
2022-07-29T16:55:11.057Z,100162.31
2022-07-29T16:57:39.450Z,100154.50
2022-07-29T17:00:08.972Z,100159.13
2022-07-29T17:02:38.673Z,100155.78
2022-07-29T17:05:07.878Z,100161.59
2022-07-29T17:07:36.316Z,100161.31
2022-07-29T17:10:08.056Z,100164.47
2022-07-29T17:12:37.645Z,100157.78
2022-07-29T17:15:06.923Z,100161.94
2022-07-29T17:17:38.722Z,100168.56
2022-07-29T17:20:23.738Z,100174.59
2022-07-29T17:22:52.202Z,100177.47
2022-07-29T17:25:22.570Z,100175.78
2022-07-29T17:27:51.486Z,100176.00
2022-07-29T17:30:20.107Z,100187.97
2022-07-29T17:32:48.523Z,100182.03
2022-07-29T17:35:36.619Z,100187.78
2022-07-29T17:38:05.522Z,100188.09
2022-07-29T17:40:35.226Z,100185.66
2022-07-29T17:43:04.705Z,100185.06
2022-07-29T17:45:49.864Z,100184.53
2022-07-29T17:48:20.268Z,100188.56
2022-07-29T17:50:49.645Z,100187.25
2022-07-29T17:53:18.355Z,100195.03
2022-07-29T17:55:48.593Z,100200.94
2022-07-29T17:58:17.306Z,100200.59
2022-07-29T18:00:45.914Z,100203.81
2022-07-29T18:03:14.401Z,100205.25
2022-07-29T18:05:42.952Z,100212.81
2022-07-29T18:08:11.341Z,100209.66
2022-07-29T18:10:41.270Z,100205.59
2022-07-29T18:13:12.561Z,100213.16
2022-07-29T18:15:41.014Z,100211.78
2022-07-29T18:18:10.270Z,100217.47
2022-07-29T18:20:38.875Z,100220.50
2022-07-29T18:23:07.318Z,100215.47
2022-07-29T18:25:35.931Z,100219.38
2022-07-29T18:28:04.455Z,100220.44
2022-07-29T18:30:36.769Z,100220.66
2022-07-29T18:33:20.808Z,100215.59
2022-07-29T18:35:52.345Z,100218.50
2022-07-29T18:38:38.361Z,100213.34
2022-07-29T18:41:06.721Z,100219.72
2022-07-29T18:43:35.098Z,100220.91
2022-07-29T18:46:06.566Z,100222.03
2022-07-29T18:48:35.487Z,100226.84
2022-07-29T18:51:09.506Z,100229.72
2022-07-29T18:53:37.981Z,100226.44
2022-07-29T18:56:06.316Z,100229.31
2022-07-29T18:58:36.845Z,100224.25
2022-07-29T19:01:06.802Z,100222.66
2022-07-29T19:03:35.286Z,100231.88
2022-07-29T19:06:03.614Z,100229.47
2022-07-29T19:08:33.454Z,100229.63
2022-07-29T19:11:01.888Z,100230.69
2022-07-29T19:13:30.934Z,100229.09
2022-07-29T19:15:59.357Z,100233.75
2022-07-29T19:18:29.267Z,100230.38
2022-07-29T19:20:57.702Z,100233.25
2022-07-29T19:23:26.100Z,100231.59
2022-07-29T19:25:54.494Z,100230.03
2022-07-29T19:28:23.128Z,100221.31
2022-07-29T19:30:51.796Z,100228.63
2022-07-29T19:33:20.906Z,100230.47
2022-07-29T19:35:54.789Z,100239.50
2022-07-29T19:38:23.579Z,100247.72
2022-07-29T19:40:52.051Z,100239.88
2022-07-29T19:43:51.467Z,100237.31
2022-07-29T19:46:08.988Z,100255.31
2022-07-29T19:48:38.090Z,100251.84
2022-07-29T19:51:07.951Z,100251.03
2022-07-29T19:53:36.306Z,100263.59
2022-07-29T19:56:05.237Z,100262.84
2022-07-29T19:58:37.265Z,100265.69
2022-07-29T20:01:10.051Z,100263.19
2022-07-29T20:03:40.671Z,100270.44
2022-07-29T20:06:10.399Z,100271.53
2022-07-29T20:08:38.777Z,100280.56
2022-07-29T20:11:07.201Z,100279.78
2022-07-29T20:13:35.674Z,100280.84
2022-07-29T20:16:08.157Z,100286.34
2022-07-29T20:18:36.912Z,100282.00
2022-07-29T20:21:05.529Z,100276.78
2022-07-29T20:23:35.240Z,100275.19
2022-07-29T20:26:08.734Z,100277.13
2022-07-29T20:28:40.114Z,100278.13
2022-07-29T20:31:08.769Z,100287.13
2022-07-29T20:33:37.262Z,100281.97
2022-07-29T20:36:08.542Z,100279.44
2022-07-29T20:38:38.271Z,100290.22
2022-07-29T20:41:06.753Z,100285.00
2022-07-29T20:43:36.137Z,100296.59
2022-07-29T20:46:07.832Z,100293.13
2022-07-29T20:48:36.246Z,100290.56
2022-07-29T20:51:04.617Z,100296.88
2022-07-29T20:53:33.747Z,100302.25
2022-07-29T20:56:04.179Z,100297.03
2022-07-29T20:58:33.976Z,100298.00
2022-07-29T21:01:02.636Z,100297.19
2022-07-29T21:03:31.002Z,100294.56
2022-07-29T21:05:59.528Z,100309.72
2022-07-29T21:08:28.239Z,100302.66
2022-07-29T21:10:56.722Z,100300.03
2022-07-29T21:13:26.493Z,100294.75
2022-07-29T21:15:59.038Z,100302.78
2022-07-29T21:18:30.273Z,100306.38
2022-07-29T21:21:01.769Z,100307.28
2022-07-29T21:23:30.908Z,100307.31
2022-07-29T21:25:59.803Z,100304.72
2022-07-29T21:28:30.499Z,100304.69
2022-07-29T21:31:00.740Z,100302.94
2022-07-29T21:33:31.189Z,100304.72
2022-07-29T21:36:20.270Z,100306.50
2022-07-29T21:38:47.995Z,100310.03
2022-07-29T21:41:16.368Z,100313.63
2022-07-29T21:43:46.389Z,100318.09
2022-07-29T21:46:18.021Z,100321.63
2022-07-29T21:48:46.544Z,100321.66
2022-07-29T21:51:14.966Z,100326.13
2022-07-29T21:53:43.414Z,100324.38
2022-07-29T21:56:14.596Z,100328.81
2022-07-29T21:58:43.962Z,100337.66
2022-07-29T22:01:13.927Z,100330.59
2022-07-29T22:03:42.378Z,100326.16
2022-07-29T22:06:11.427Z,100340.31
2022-07-29T22:08:47.832Z,100331.50
2022-07-29T22:11:16.512Z,100327.97
2022-07-29T22:13:44.870Z,100324.44
2022-07-29T22:16:15.206Z,100324.44
2022-07-29T22:18:46.626Z,100327.09
2022-07-29T22:21:15.210Z,100325.34
2022-07-29T22:23:43.602Z,100329.75
2022-07-29T22:26:12.030Z,100323.56
2022-07-29T22:28:40.609Z,100326.22
2022-07-29T22:31:09.248Z,100332.47
2022-07-29T22:33:39.075Z,100329.84
2022-07-29T22:36:08.021Z,100328.97
2022-07-29T22:38:36.407Z,100332.50
2022-07-29T22:41:04.814Z,100325.44
2022-07-29T22:43:33.742Z,100328.13
2022-07-29T22:46:02.313Z,100331.66
2022-07-29T22:48:31.238Z,100328.13
2022-07-29T22:51:01.380Z,100321.06
2022-07-29T22:53:29.788Z,100323.72
2022-07-29T22:55:58.118Z,100319.31
2022-07-29T22:58:26.544Z,100320.19
2022-07-29T23:00:55.021Z,100313.13
2022-07-29T23:03:23.570Z,100314.00
2022-07-29T23:05:52.372Z,100310.50
2022-07-29T23:08:22.297Z,100322.94
2022-07-29T23:10:50.657Z,100312.31
2022-07-29T23:13:19.086Z,100305.28
2022-07-29T23:15:47.937Z,100305.31
2022-07-29T23:18:16.399Z,100309.75
2022-07-29T23:20:44.975Z,100297.41
2022-07-29T23:23:13.501Z,100296.56
2022-07-29T23:25:43.267Z,100299.22
2022-07-29T23:28:13.064Z,100293.00
2022-07-29T23:30:41.864Z,100291.28
2022-07-29T23:33:10.557Z,100291.31
2022-07-29T23:35:38.950Z,100286.03
2022-07-29T23:38:07.350Z,100291.41
2022-07-29T23:40:35.804Z,100283.47
2022-07-29T23:43:08.610Z,100278.19
2022-07-29T23:45:42.685Z,100272.94
2022-07-29T23:48:14.512Z,100280.94
2022-07-29T23:50:46.213Z,100283.59
2022-07-29T23:53:14.592Z,100283.63
2022-07-29T23:55:43.905Z,100276.56
2022-07-29T23:58:13.630Z,100281.94
